createdAt,value
2019-05-12T00:00:01.000Z,7.75
2019-05-12T00:04:01.000Z,7.75
2019-05-12T00:12:02.000Z,7.75
2019-05-12T00:22:01.000Z,7.812
2019-05-12T00:23:02.000Z,7.75
2019-05-12T00:24:01.000Z,7.75
2019-05-12T00:24:01.000Z,7.75
2019-05-12T00:25:01.000Z,7.687
2019-05-12T00:26:01.000Z,7.75
2019-05-12T00:27:01.000Z,7.75
2019-05-12T00:28:02.000Z,7.75
2019-05-12T00:29:02.000Z,7.812
2019-05-12T00:30:01.000Z,7.75
2019-05-12T00:31:01.000Z,7.812
2019-05-12T00:32:02.000Z,7.812
2019-05-12T00:32:02.000Z,7.812
2019-05-12T00:33:02.000Z,7.812
2019-05-12T00:34:02.000Z,7.812
2019-05-12T00:35:01.000Z,7.812
2019-05-12T00:36:01.000Z,7.875
2019-05-12T00:37:01.000Z,7.875
2019-05-12T00:38:01.000Z,7.812
2019-05-12T00:39:01.000Z,7.812
2019-05-12T00:40:02.000Z,7.812
2019-05-12T00:41:01.000Z,7.812
2019-05-12T00:42:01.000Z,7.875
2019-05-12T00:43:02.000Z,7.875
2019-05-12T00:44:02.000Z,7.937
2019-05-12T00:45:02.000Z,7.937
2019-05-12T00:46:01.000Z,7.937
2019-05-12T00:46:02.000Z,7.937
2019-05-12T00:47:01.000Z,7.937
2019-05-12T00:48:01.000Z,7.875
2019-05-12T00:49:01.000Z,7.812
2019-05-12T00:50:01.000Z,7.812
2019-05-12T00:51:01.000Z,7.875
2019-05-12T00:52:01.000Z,7.812
2019-05-12T00:53:01.000Z,7.812
2019-05-12T00:54:01.000Z,7.812
2019-05-12T00:55:02.000Z,7.875
2019-05-12T00:56:02.000Z,7.875
2019-05-12T00:57:01.000Z,7.875
2019-05-12T00:58:02.000Z,7.875
2019-05-12T00:59:02.000Z,7.875
2019-05-12T01:00:01.000Z,7.875
2019-05-12T01:00:02.000Z,7.875
2019-05-12T01:01:02.000Z,7.875
2019-05-12T01:02:01.000Z,7.812
2019-05-12T01:03:01.000Z,7.875
2019-05-12T01:04:01.000Z,7.875
2019-05-12T01:05:01.000Z,7.875
2019-05-12T01:06:01.000Z,7.875
2019-05-12T01:07:01.000Z,7.875
2019-05-12T01:08:01.000Z,7.875
2019-05-12T01:09:01.000Z,7.937
2019-05-12T01:10:01.000Z,7.875
2019-05-12T01:11:01.000Z,7.937
2019-05-12T01:12:01.000Z,7.937
2019-05-12T01:13:01.000Z,8
2019-05-12T01:13:01.000Z,7.937
2019-05-12T01:14:02.000Z,8
2019-05-12T01:15:02.000Z,8.062
2019-05-12T01:16:02.000Z,8
2019-05-12T01:17:01.000Z,7.937
2019-05-12T01:18:02.000Z,7.875
2019-05-12T01:19:01.000Z,7.937
2019-05-12T01:20:01.000Z,7.937
2019-05-12T01:21:01.000Z,7.875
2019-05-12T01:22:01.000Z,7.875
2019-05-12T01:23:01.000Z,7.875
2019-05-12T01:24:02.000Z,7.875
2019-05-12T01:25:01.000Z,7.875
2019-05-12T01:26:02.000Z,7.937
2019-05-12T01:27:02.000Z,7.875
2019-05-12T01:27:02.000Z,7.875
2019-05-12T01:28:02.000Z,7.875
2019-05-12T01:29:01.000Z,7.812
2019-05-12T01:30:02.000Z,7.812
2019-05-12T01:31:02.000Z,7.687
2019-05-12T01:32:02.000Z,7.625
2019-05-12T01:33:01.000Z,7.687
2019-05-12T01:34:02.000Z,7.687
2019-05-12T01:35:01.000Z,7.687
2019-05-12T01:36:01.000Z,7.687
2019-05-12T01:37:01.000Z,7.75
2019-05-12T01:38:01.000Z,7.687
2019-05-12T01:38:02.000Z,7.687
2019-05-12T01:39:01.000Z,7.687
2019-05-12T01:40:01.000Z,7.687
2019-05-12T01:41:02.000Z,7.687
2019-05-12T01:42:02.000Z,7.75
2019-05-12T01:43:01.000Z,7.75
2019-05-12T01:44:02.000Z,7.687
2019-05-12T01:45:01.000Z,7.687
2019-05-12T01:46:01.000Z,7.75
2019-05-12T01:47:01.000Z,7.687
2019-05-12T01:48:01.000Z,7.687
2019-05-12T01:48:02.000Z,7.687
2019-05-12T01:49:02.000Z,7.75
2019-05-12T01:50:01.000Z,7.687
2019-05-12T01:51:01.000Z,7.687
2019-05-12T01:52:01.000Z,7.687
2019-05-12T01:53:02.000Z,7.687
2019-05-12T01:54:02.000Z,7.687
2019-05-12T01:55:02.000Z,7.687
2019-05-12T01:56:01.000Z,7.687
2019-05-12T01:57:01.000Z,7.687
2019-05-12T01:58:01.000Z,7.687
2019-05-12T01:59:02.000Z,7.687
2019-05-12T02:00:01.000Z,7.687
2019-05-12T02:01:01.000Z,7.625
2019-05-12T02:02:01.000Z,7.625
2019-05-12T02:02:01.000Z,7.625
2019-05-12T02:03:01.000Z,7.625
2019-05-12T02:04:01.000Z,7.562
2019-05-12T02:05:01.000Z,7.5
2019-05-12T02:06:02.000Z,7.5
2019-05-12T02:07:01.000Z,7.562
2019-05-12T02:08:01.000Z,7.625
2019-05-12T02:09:01.000Z,7.625
2019-05-12T02:10:01.000Z,7.625
2019-05-12T02:11:01.000Z,7.625
2019-05-12T02:12:01.000Z,7.625
2019-05-12T02:13:01.000Z,7.625
2019-05-12T02:14:01.000Z,7.625
2019-05-12T02:15:01.000Z,7.625
2019-05-12T02:15:02.000Z,7.687
2019-05-12T02:16:01.000Z,7.687
2019-05-12T02:17:02.000Z,7.687
2019-05-12T02:18:01.000Z,7.687
2019-05-12T02:19:01.000Z,7.687
2019-05-12T02:20:01.000Z,7.687
2019-05-12T02:21:02.000Z,7.687
2019-05-12T02:22:01.000Z,7.687
2019-05-12T02:23:02.000Z,7.687
2019-05-12T02:24:01.000Z,7.687
2019-05-12T02:25:01.000Z,7.687
2019-05-12T02:26:01.000Z,7.75
2019-05-12T02:27:01.000Z,7.75
2019-05-12T02:28:01.000Z,7.75
2019-05-12T02:28:02.000Z,7.75
2019-05-12T02:29:01.000Z,7.75
2019-05-12T02:30:01.000Z,7.75
2019-05-12T02:31:02.000Z,7.812
2019-05-12T02:32:02.000Z,7.812
2019-05-12T02:33:02.000Z,7.812
2019-05-12T02:34:01.000Z,7.812
2019-05-12T02:34:02.000Z,7.812
2019-05-12T02:35:01.000Z,7.875
2019-05-12T02:35:02.000Z,7.875
2019-05-12T02:36:01.000Z,7.875
2019-05-12T02:36:02.000Z,7.875
2019-05-12T02:37:02.000Z,7.875
2019-05-12T02:38:02.000Z,7.812
2019-05-12T02:38:02.000Z,7.812
2019-05-12T02:39:02.000Z,7.75
2019-05-12T02:39:02.000Z,7.75
2019-05-12T02:40:02.000Z,7.75
2019-05-12T02:41:02.000Z,7.75
2019-05-12T02:42:01.000Z,7.75
2019-05-12T02:43:01.000Z,7.75
2019-05-12T02:44:01.000Z,7.75
2019-05-12T02:45:01.000Z,7.687
2019-05-12T02:46:02.000Z,7.687
2019-05-12T02:47:01.000Z,7.687
2019-05-12T02:47:02.000Z,7.687
2019-05-12T02:48:01.000Z,7.625
2019-05-12T02:49:01.000Z,7.625
2019-05-12T02:50:01.000Z,7.687
2019-05-12T02:51:02.000Z,7.625
2019-05-12T02:52:01.000Z,7.687
2019-05-12T02:53:01.000Z,7.687
2019-05-12T02:54:01.000Z,7.687
2019-05-12T02:55:02.000Z,7.687
2019-05-12T02:55:02.000Z,7.687
2019-05-12T02:56:01.000Z,7.687
2019-05-12T02:57:01.000Z,7.687
2019-05-12T02:58:01.000Z,7.625
2019-05-12T02:59:01.000Z,7.625
2019-05-12T03:00:01.000Z,7.625
2019-05-12T03:01:01.000Z,7.562
2019-05-12T03:02:02.000Z,7.625
2019-05-12T03:03:02.000Z,7.562
2019-05-12T03:04:02.000Z,7.562
2019-05-12T03:05:01.000Z,7.562
2019-05-12T03:06:02.000Z,7.562
2019-05-12T03:07:02.000Z,7.562
2019-05-12T03:07:02.000Z,7.562
2019-05-12T03:08:02.000Z,7.562
2019-05-12T03:09:02.000Z,7.562
2019-05-12T03:10:01.000Z,7.562
2019-05-12T03:11:01.000Z,7.5
2019-05-12T03:12:01.000Z,7.5
2019-05-12T03:13:01.000Z,7.5
2019-05-12T03:14:01.000Z,7.5
2019-05-12T03:15:01.000Z,7.5
2019-05-12T03:16:01.000Z,7.5
2019-05-12T03:17:01.000Z,7.5
2019-05-12T03:18:01.000Z,7.5
2019-05-12T03:19:01.000Z,7.5
2019-05-12T03:20:01.000Z,7.562
2019-05-12T03:20:01.000Z,7.562
2019-05-12T03:21:01.000Z,7.562
2019-05-12T03:22:02.000Z,7.562
2019-05-12T03:23:02.000Z,7.562
2019-05-12T03:24:02.000Z,7.562
2019-05-12T03:25:02.000Z,7.562
2019-05-12T03:26:01.000Z,7.5
2019-05-12T03:27:01.000Z,7.5
2019-05-12T03:28:01.000Z,7.5
2019-05-12T03:29:01.000Z,7.437
2019-05-12T03:30:01.000Z,7.437
2019-05-12T03:31:01.000Z,7.437
2019-05-12T03:32:01.000Z,7.437
2019-05-12T03:33:02.000Z,7.437
2019-05-12T03:34:01.000Z,7.437
2019-05-12T03:35:02.000Z,7.437
2019-05-12T03:36:01.000Z,7.5
2019-05-12T03:37:02.000Z,7.5
2019-05-12T03:38:01.000Z,7.437
2019-05-12T03:39:02.000Z,7.375
2019-05-12T03:40:01.000Z,7.437
2019-05-12T03:41:01.000Z,7.437
2019-05-12T03:42:01.000Z,7.437
2019-05-12T03:43:01.000Z,7.375
2019-05-12T03:44:01.000Z,7.312
2019-05-12T03:45:01.000Z,7.375
2019-05-12T03:45:01.000Z,7.375
2019-05-12T03:46:02.000Z,7.312
2019-05-12T03:47:01.000Z,7.375
2019-05-12T03:48:02.000Z,7.312
2019-05-12T03:49:02.000Z,7.25
2019-05-12T03:50:02.000Z,7.375
2019-05-12T03:51:02.000Z,7.312
2019-05-12T03:52:02.000Z,7.312
2019-05-12T03:53:01.000Z,7.312
2019-05-12T03:54:02.000Z,7.312
2019-05-12T03:55:02.000Z,7.312
2019-05-12T03:56:01.000Z,7.312
2019-05-12T03:57:01.000Z,7.312
2019-05-12T03:57:01.000Z,7.25
2019-05-12T03:58:01.000Z,7.25
2019-05-12T03:59:01.000Z,7.25
2019-05-12T04:00:01.000Z,7.25
2019-05-12T04:01:02.000Z,7.25
2019-05-12T04:02:02.000Z,7.312
2019-05-12T04:03:02.000Z,7.25
2019-05-12T04:04:02.000Z,7.25
2019-05-12T04:05:02.000Z,7.312
2019-05-12T04:06:02.000Z,7.25
2019-05-12T04:06:02.000Z,7.312
2019-05-12T04:07:01.000Z,7.312
2019-05-12T04:08:01.000Z,7.312
2019-05-12T04:09:01.000Z,7.312
2019-05-12T04:10:01.000Z,7.312
2019-05-12T04:11:01.000Z,7.312
2019-05-12T04:12:01.000Z,7.312
2019-05-12T04:13:01.000Z,7.312
2019-05-12T04:14:01.000Z,7.375
2019-05-12T04:15:01.000Z,7.375
2019-05-12T04:16:01.000Z,7.375
2019-05-12T04:17:01.000Z,7.375
2019-05-12T04:18:01.000Z,7.375
2019-05-12T04:19:01.000Z,7.375
2019-05-12T04:19:02.000Z,7.375
2019-05-12T04:20:01.000Z,7.437
2019-05-12T04:21:01.000Z,7.437
2019-05-12T04:22:01.000Z,7.5
2019-05-12T04:23:01.000Z,7.5
2019-05-12T04:24:01.000Z,7.562
2019-05-12T04:25:02.000Z,7.562
2019-05-12T04:26:01.000Z,7.562
2019-05-12T04:27:01.000Z,7.625
2019-05-12T04:28:01.000Z,7.625
2019-05-12T04:29:01.000Z,7.687
2019-05-12T04:30:01.000Z,7.687
2019-05-12T04:31:01.000Z,7.687
2019-05-12T04:32:02.000Z,7.75
2019-05-12T04:33:01.000Z,7.75
2019-05-12T04:33:02.000Z,7.75
2019-05-12T04:34:01.000Z,7.812
2019-05-12T04:35:01.000Z,7.875
2019-05-12T04:36:01.000Z,7.875
2019-05-12T04:37:01.000Z,7.937
2019-05-12T04:38:02.000Z,7.937
2019-05-12T04:39:02.000Z,7.937
2019-05-12T04:40:01.000Z,8
2019-05-12T04:41:02.000Z,8
2019-05-12T04:42:02.000Z,8.062
2019-05-12T04:43:01.000Z,8.062
2019-05-12T04:44:01.000Z,8.125
2019-05-12T04:45:01.000Z,8.125
2019-05-12T04:46:01.000Z,8.187
2019-05-12T04:46:01.000Z,8.187
2019-05-12T04:47:01.000Z,8.25
2019-05-12T04:47:02.000Z,8.25
2019-05-12T04:48:01.000Z,8.312
2019-05-12T04:49:02.000Z,8.375
2019-05-12T04:50:02.000Z,8.5
2019-05-12T04:51:01.000Z,8.562
2019-05-12T04:52:01.000Z,8.625
2019-05-12T04:53:01.000Z,8.687
2019-05-12T04:54:01.000Z,8.75
2019-05-12T04:54:01.000Z,8.75
2019-05-12T04:55:01.000Z,8.812
2019-05-12T04:56:01.000Z,8.937
2019-05-12T04:57:01.000Z,9
2019-05-12T04:58:01.000Z,9.062
2019-05-12T04:59:01.000Z,9.062
2019-05-12T05:00:01.000Z,9.062
2019-05-12T05:01:01.000Z,9.062
2019-05-12T05:02:02.000Z,9
2019-05-12T05:03:01.000Z,8.875
2019-05-12T05:03:01.000Z,8.875
2019-05-12T05:04:01.000Z,8.875
2019-05-12T05:05:01.000Z,8.812
2019-05-12T05:06:01.000Z,8.812
2019-05-12T05:07:01.000Z,8.812
2019-05-12T05:08:01.000Z,8.875
2019-05-12T05:09:01.000Z,8.875
2019-05-12T05:10:02.000Z,9
2019-05-12T05:11:01.000Z,9.062
2019-05-12T05:12:02.000Z,9.187
2019-05-12T05:13:02.000Z,9.375
2019-05-12T05:14:01.000Z,9.5
2019-05-12T05:15:02.000Z,9.625
2019-05-12T05:16:01.000Z,9.687
2019-05-12T05:17:02.000Z,9.75
2019-05-12T05:17:02.000Z,9.75
2019-05-12T05:18:01.000Z,9.875
2019-05-12T05:19:01.000Z,10
2019-05-12T05:20:02.000Z,10.125
2019-05-12T05:21:02.000Z,10.25
2019-05-12T05:22:02.000Z,10.25
2019-05-12T05:23:02.000Z,10.562
2019-05-12T05:24:02.000Z,10.562
2019-05-12T05:25:02.000Z,10.687
2019-05-12T05:26:01.000Z,10.937
2019-05-12T05:27:01.000Z,11.062
2019-05-12T05:28:01.000Z,11.062
2019-05-12T05:29:01.000Z,11.312
2019-05-12T05:30:01.000Z,11.375
2019-05-12T05:30:01.000Z,11.375
2019-05-12T05:31:01.000Z,11.5
2019-05-12T05:32:02.000Z,11.5
2019-05-12T05:33:02.000Z,11.312
2019-05-12T05:34:02.000Z,11.312
2019-05-12T05:35:01.000Z,11.187
2019-05-12T05:36:02.000Z,11.125
2019-05-12T05:37:01.000Z,11.187
2019-05-12T05:38:01.000Z,11.312
2019-05-12T05:39:01.000Z,11.562
2019-05-12T05:40:01.000Z,11.625
2019-05-12T05:41:01.000Z,11.75
2019-05-12T05:42:02.000Z,11.875
2019-05-12T05:43:02.000Z,11.812
2019-05-12T05:43:02.000Z,11.812
2019-05-12T05:44:01.000Z,11.875
2019-05-12T05:45:01.000Z,12.187
2019-05-12T05:46:02.000Z,12.375
2019-05-12T05:47:01.000Z,12.437
2019-05-12T05:48:01.000Z,12.312
2019-05-12T05:49:01.000Z,12.375
2019-05-12T05:50:01.000Z,12.5
2019-05-12T05:51:01.000Z,12.562
2019-05-12T05:52:01.000Z,12.625
2019-05-12T05:53:01.000Z,12.687
2019-05-12T05:54:01.000Z,12.75
2019-05-12T05:55:01.000Z,13
2019-05-12T05:56:02.000Z,13.062
2019-05-12T05:56:02.000Z,13.062
2019-05-12T05:57:02.000Z,13.187
2019-05-12T05:58:02.000Z,13.25
2019-05-12T05:59:02.000Z,13.25
2019-05-12T06:00:02.000Z,13.25
2019-05-12T06:01:01.000Z,13.25
2019-05-12T06:02:01.000Z,13.375
2019-05-12T06:03:01.000Z,13.25
2019-05-12T06:04:01.000Z,13
2019-05-12T06:05:02.000Z,12.687
2019-05-12T06:06:02.000Z,12.875
2019-05-12T06:07:01.000Z,13.062
2019-05-12T06:08:01.000Z,13.187
2019-05-12T06:08:02.000Z,13.187
2019-05-12T06:09:01.000Z,13.25
2019-05-12T06:10:01.000Z,13.25
2019-05-12T06:11:01.000Z,13.312
2019-05-12T06:12:02.000Z,13.312
2019-05-12T06:13:01.000Z,13.25
2019-05-12T06:14:02.000Z,13.375
2019-05-12T06:15:02.000Z,13.812
2019-05-12T06:16:01.000Z,14.062
2019-05-12T06:17:01.000Z,14.187
2019-05-12T06:17:02.000Z,14.187
2019-05-12T06:18:01.000Z,14.625
2019-05-12T06:19:01.000Z,14.625
2019-05-12T06:20:01.000Z,14.375
2019-05-12T06:21:01.000Z,14.25
2019-05-12T06:22:01.000Z,14.062
2019-05-12T06:23:01.000Z,14.312
2019-05-12T06:24:01.000Z,14.687
2019-05-12T06:25:02.000Z,15.062
2019-05-12T06:26:01.000Z,15.375
2019-05-12T06:27:02.000Z,15.437
2019-05-12T06:29:02.000Z,14.625
2019-05-12T06:30:02.000Z,14.125
2019-05-12T06:30:02.000Z,14.125
2019-05-12T06:31:02.000Z,14.125
2019-05-12T06:32:02.000Z,13.5
2019-05-12T06:33:02.000Z,13
2019-05-12T06:34:01.000Z,13.062
2019-05-12T06:35:01.000Z,13.125
2019-05-12T06:36:01.000Z,13
2019-05-12T06:37:02.000Z,12.875
2019-05-12T06:38:01.000Z,12.625
2019-05-12T06:39:02.000Z,12.375
2019-05-12T06:40:02.000Z,12.187
2019-05-12T06:41:02.000Z,12
2019-05-12T06:42:02.000Z,11.937
2019-05-12T06:42:02.000Z,11.937
2019-05-12T06:43:02.000Z,12.062
2019-05-12T06:44:02.000Z,12.062
2019-05-12T06:45:01.000Z,11.937
2019-05-12T06:46:01.000Z,11.875
2019-05-12T06:47:01.000Z,11.812
2019-05-12T06:48:01.000Z,12.062
2019-05-12T06:49:01.000Z,12.187
2019-05-12T06:50:01.000Z,12.187
2019-05-12T06:51:01.000Z,12.437
2019-05-12T06:52:01.000Z,12.562
2019-05-12T06:53:01.000Z,12.937
2019-05-12T06:54:01.000Z,13.312
2019-05-12T06:55:01.000Z,13.562
2019-05-12T06:55:01.000Z,13.562
2019-05-12T06:56:01.000Z,13.875
2019-05-12T06:57:02.000Z,13.937
2019-05-12T06:58:01.000Z,14.187
2019-05-12T06:59:01.000Z,14.25
2019-05-12T07:00:02.000Z,14.125
2019-05-12T07:01:02.000Z,14.125
2019-05-12T07:02:01.000Z,14.312
2019-05-12T07:03:01.000Z,14.312
2019-05-12T07:04:01.000Z,14.125
2019-05-12T07:05:01.000Z,14.062
2019-05-12T07:06:01.000Z,14.062
2019-05-12T07:07:01.000Z,14.062
2019-05-12T07:08:01.000Z,14.25
2019-05-12T07:08:02.000Z,14.25
2019-05-12T07:09:01.000Z,14.25
2019-05-12T07:10:01.000Z,14.312
2019-05-12T07:11:01.000Z,14.312
2019-05-12T07:12:01.000Z,14.375
2019-05-12T07:13:01.000Z,14.75
2019-05-12T07:14:02.000Z,14.937
2019-05-12T07:15:01.000Z,15.187
2019-05-12T07:16:01.000Z,15.187
2019-05-12T07:17:01.000Z,15.375
2019-05-12T07:18:02.000Z,15.062
2019-05-12T07:19:01.000Z,14.75
2019-05-12T07:20:02.000Z,14.562
2019-05-12T07:20:02.000Z,14.562
2019-05-12T07:21:02.000Z,14.437
2019-05-12T07:22:02.000Z,14.5
2019-05-12T07:23:01.000Z,14.75
2019-05-12T07:24:01.000Z,14.75
2019-05-12T07:25:01.000Z,14.75
2019-05-12T07:26:02.000Z,14.937
2019-05-12T07:27:02.000Z,15.187
2019-05-12T07:28:01.000Z,15.187
2019-05-12T07:28:02.000Z,15.437
2019-05-12T07:29:01.000Z,15.562
2019-05-12T07:30:01.000Z,15.687
2019-05-12T07:31:01.000Z,15.625
2019-05-12T07:32:01.000Z,15.625
2019-05-12T07:33:01.000Z,15.437
2019-05-12T07:34:01.000Z,15.562
2019-05-12T07:35:01.000Z,15.812
2019-05-12T07:36:01.000Z,15.75
2019-05-12T07:37:01.000Z,15.625
2019-05-12T07:38:02.000Z,15.562
2019-05-12T07:39:02.000Z,15.562
2019-05-12T07:40:01.000Z,15.625
2019-05-12T07:40:02.000Z,15.625
2019-05-12T07:41:01.000Z,15.625
2019-05-12T07:42:01.000Z,15.187
2019-05-12T07:43:02.000Z,15.375
2019-05-12T07:44:02.000Z,15.625
2019-05-12T07:45:01.000Z,15.687
2019-05-12T07:46:01.000Z,15.625
2019-05-12T07:47:02.000Z,15.687
2019-05-12T07:48:02.000Z,15.937
2019-05-12T07:49:01.000Z,15.875
2019-05-12T07:50:01.000Z,16.187
2019-05-12T07:51:01.000Z,16.187
2019-05-12T07:52:02.000Z,16.437
2019-05-12T07:53:02.000Z,16.75
2019-05-12T07:53:02.000Z,16.75
2019-05-12T07:54:02.000Z,16.625
2019-05-12T07:55:01.000Z,17
2019-05-12T07:56:01.000Z,17.062
2019-05-12T07:57:01.000Z,16.625
2019-05-12T07:58:02.000Z,16.375
2019-05-12T07:59:02.000Z,15.937
2019-05-12T08:00:02.000Z,15.625
2019-05-12T08:01:02.000Z,15.75
2019-05-12T08:02:01.000Z,16
2019-05-12T08:03:01.000Z,16.062
2019-05-12T08:04:01.000Z,15.812
2019-05-12T08:05:01.000Z,16.062
2019-05-12T08:06:01.000Z,16.375
2019-05-12T08:06:02.000Z,16.375
2019-05-12T08:07:01.000Z,16.437
2019-05-12T08:08:01.000Z,16.687
2019-05-12T08:09:01.000Z,16.687
2019-05-12T08:10:01.000Z,16.375
2019-05-12T08:11:02.000Z,16.187
2019-05-12T08:12:02.000Z,16.187
2019-05-12T08:13:02.000Z,16.187
2019-05-12T08:14:01.000Z,16.687
2019-05-12T08:15:01.000Z,16.875
2019-05-12T08:16:02.000Z,16.437
2019-05-12T08:17:02.000Z,16.437
2019-05-12T08:18:01.000Z,16.062
2019-05-12T08:19:01.000Z,15.812
2019-05-12T08:19:02.000Z,15.812
2019-05-12T08:20:02.000Z,15.75
2019-05-12T08:21:01.000Z,15.562
2019-05-12T08:22:01.000Z,15.375
2019-05-12T08:23:01.000Z,15.562
2019-05-12T08:24:02.000Z,15.375
2019-05-12T08:25:02.000Z,15.187
2019-05-12T08:26:01.000Z,15.187
2019-05-12T08:27:02.000Z,15.437
2019-05-12T08:28:02.000Z,15.312
2019-05-12T08:29:01.000Z,15.5
2019-05-12T08:30:02.000Z,15.437
2019-05-12T08:30:02.000Z,15.437
2019-05-12T08:31:01.000Z,15.312
2019-05-12T08:32:01.000Z,15.125
2019-05-12T08:33:01.000Z,15
2019-05-12T08:34:01.000Z,14.812
2019-05-12T08:35:01.000Z,15.125
2019-05-12T08:36:01.000Z,15.187
2019-05-12T08:37:02.000Z,15.062
2019-05-12T08:38:02.000Z,14.937
2019-05-12T08:39:02.000Z,15.125
2019-05-12T08:40:01.000Z,15.125
2019-05-12T08:40:01.000Z,15.125
2019-05-12T08:41:02.000Z,15.125
2019-05-12T08:42:01.000Z,15.375
2019-05-12T08:43:01.000Z,15.312
2019-05-12T08:44:02.000Z,15.562
2019-05-12T08:45:02.000Z,15.437
2019-05-12T08:46:02.000Z,15.562
2019-05-12T08:47:01.000Z,15.687
2019-05-12T08:48:01.000Z,15.75
2019-05-12T08:49:02.000Z,15.875
2019-05-12T08:50:01.000Z,16.062
2019-05-12T08:51:01.000Z,16.437
2019-05-12T08:52:01.000Z,16.25
2019-05-12T08:52:02.000Z,16.25
2019-05-12T08:53:01.000Z,16.25
2019-05-12T08:54:01.000Z,16.187
2019-05-12T08:55:01.000Z,16.312
2019-05-12T08:56:02.000Z,16.125
2019-05-12T08:57:02.000Z,16
2019-05-12T08:58:02.000Z,16.25
2019-05-12T08:59:02.000Z,16.062
2019-05-12T09:00:01.000Z,15.937
2019-05-12T09:01:02.000Z,15.937
2019-05-12T09:02:01.000Z,16.062
2019-05-12T09:03:02.000Z,16.437
2019-05-12T09:04:01.000Z,16.5
2019-05-12T09:05:01.000Z,16.687
2019-05-12T09:05:02.000Z,16.687
2019-05-12T09:06:02.000Z,16.812
2019-05-12T09:07:02.000Z,17.125
2019-05-12T09:08:02.000Z,17.312
2019-05-12T09:09:02.000Z,17.437
2019-05-12T09:10:02.000Z,17.437
2019-05-12T09:11:01.000Z,16.875
2019-05-12T09:12:01.000Z,17
2019-05-12T09:13:02.000Z,16.937
2019-05-12T09:14:02.000Z,17.125
2019-05-12T09:15:01.000Z,17.437
2019-05-12T09:16:02.000Z,17.687
2019-05-12T09:17:02.000Z,17.5
2019-05-12T09:17:02.000Z,17.5
2019-05-12T09:18:01.000Z,17.187
2019-05-12T09:19:01.000Z,17.125
2019-05-12T09:20:01.000Z,17.062
2019-05-12T09:21:01.000Z,17.125
2019-05-12T09:22:02.000Z,17.062
2019-05-12T09:23:01.000Z,17.062
2019-05-12T09:24:01.000Z,17.125
2019-05-12T09:25:01.000Z,17.125
2019-05-12T09:26:01.000Z,17.062
2019-05-12T09:27:01.000Z,17.062
2019-05-12T09:28:01.000Z,17.312
2019-05-12T09:29:01.000Z,17.062
2019-05-12T09:30:02.000Z,16.937
2019-05-12T09:31:01.000Z,16.812
2019-05-12T09:31:01.000Z,16.812
2019-05-12T09:32:02.000Z,16.687
2019-05-12T09:33:02.000Z,16.875
2019-05-12T09:34:01.000Z,17
2019-05-12T09:35:01.000Z,17.187
2019-05-12T09:36:01.000Z,17.437
2019-05-12T09:37:01.000Z,17.812
2019-05-12T09:38:01.000Z,18.187
2019-05-12T09:39:01.000Z,18
2019-05-12T09:40:01.000Z,17.437
2019-05-12T09:41:01.000Z,17.312
2019-05-12T09:42:01.000Z,17.437
2019-05-12T09:43:01.000Z,17.437
2019-05-12T09:43:02.000Z,17.437
2019-05-12T09:44:02.000Z,17.312
2019-05-12T09:45:02.000Z,17.437
2019-05-12T09:46:02.000Z,18
2019-05-12T09:47:02.000Z,18.312
2019-05-12T09:48:01.000Z,18.5
2019-05-12T09:49:01.000Z,18.812
2019-05-12T09:50:01.000Z,19.187
2019-05-12T09:51:01.000Z,18.812
2019-05-12T09:52:01.000Z,18.687
2019-05-12T09:52:01.000Z,18.687
2019-05-12T09:53:02.000Z,17.812
2019-05-12T09:54:01.000Z,17.312
2019-05-12T09:55:01.000Z,17.312
2019-05-12T09:56:02.000Z,17.312
2019-05-12T09:57:02.000Z,16.937
2019-05-12T09:58:02.000Z,16.937
2019-05-12T09:59:02.000Z,16.875
2019-05-12T10:00:01.000Z,17.125
2019-05-12T10:01:01.000Z,17.437
2019-05-12T10:02:01.000Z,17.625
2019-05-12T10:03:01.000Z,17.687
2019-05-12T10:04:02.000Z,17.687
2019-05-12T10:05:02.000Z,17.625
2019-05-12T10:06:01.000Z,17.437
2019-05-12T10:06:02.000Z,17.437
2019-05-12T10:07:01.000Z,17.437
2019-05-12T10:08:01.000Z,17.25
2019-05-12T10:09:01.000Z,17.312
2019-05-12T10:10:01.000Z,17.437
2019-05-12T10:11:01.000Z,17.562
2019-05-12T10:12:01.000Z,17.562
2019-05-12T10:13:01.000Z,17.375
2019-05-12T10:14:01.000Z,17
2019-05-12T10:15:02.000Z,16.75
2019-05-12T10:16:02.000Z,16.437
2019-05-12T10:17:01.000Z,16.312
2019-05-12T10:18:01.000Z,16.5
2019-05-12T10:19:01.000Z,16.187
2019-05-12T10:19:01.000Z,16.187
2019-05-12T10:20:01.000Z,16.25
2019-05-12T10:21:01.000Z,16.5
2019-05-12T10:22:01.000Z,16.812
2019-05-12T10:23:01.000Z,17.125
2019-05-12T10:24:01.000Z,17.25
2019-05-12T10:25:01.000Z,17.375
2019-05-12T10:26:02.000Z,17.312
2019-05-12T10:27:01.000Z,17.312
2019-05-12T10:28:01.000Z,17.25
2019-05-12T10:29:02.000Z,17.125
2019-05-12T10:30:02.000Z,17.312
2019-05-12T10:31:01.000Z,17.375
2019-05-12T10:32:01.000Z,17.187
2019-05-12T10:32:02.000Z,17.187
2019-05-12T10:33:01.000Z,17.187
2019-05-12T10:34:01.000Z,17.125
2019-05-12T10:35:01.000Z,17
2019-05-12T10:36:01.000Z,16.875
2019-05-12T10:37:02.000Z,16.625
2019-05-12T10:38:02.000Z,16.625
2019-05-12T10:39:01.000Z,16.687
2019-05-12T10:40:01.000Z,16.875
2019-05-12T10:41:02.000Z,17
2019-05-12T10:42:01.000Z,17
2019-05-12T10:43:01.000Z,17.062
2019-05-12T10:44:01.000Z,17.125
2019-05-12T10:44:02.000Z,17.125
2019-05-12T10:45:01.000Z,16.875
2019-05-12T10:46:01.000Z,17
2019-05-12T10:47:02.000Z,17.062
2019-05-12T10:48:02.000Z,17.062
2019-05-12T10:49:02.000Z,16.937
2019-05-12T10:50:01.000Z,16.875
2019-05-12T10:51:01.000Z,17
2019-05-12T10:52:01.000Z,16.937
2019-05-12T10:53:01.000Z,16.875
2019-05-12T10:54:01.000Z,17.062
2019-05-12T10:55:02.000Z,16.812
2019-05-12T10:56:01.000Z,16.687
2019-05-12T10:56:02.000Z,16.687
2019-05-12T10:57:01.000Z,17.062
2019-05-12T10:58:01.000Z,17.437
2019-05-12T10:59:01.000Z,17.5
2019-05-12T11:00:01.000Z,17.5
2019-05-12T11:01:01.000Z,17.687
2019-05-12T11:02:02.000Z,17.875
2019-05-12T11:03:02.000Z,18.125
2019-05-12T11:04:01.000Z,18.437
2019-05-12T11:05:01.000Z,18.25
2019-05-12T11:06:01.000Z,17.937
2019-05-12T11:06:02.000Z,17.937
2019-05-12T11:07:01.000Z,17.687
2019-05-12T11:08:02.000Z,17.5
2019-05-12T11:09:01.000Z,17.5
2019-05-12T11:10:02.000Z,17.437
2019-05-12T11:11:01.000Z,17.25
2019-05-12T11:12:01.000Z,17.437
2019-05-12T11:13:01.000Z,17.562
2019-05-12T11:14:01.000Z,17.687
2019-05-12T11:15:01.000Z,17.5
2019-05-12T11:16:01.000Z,17.687
2019-05-12T11:17:01.000Z,17.812
2019-05-12T11:18:01.000Z,17.875
2019-05-12T11:18:02.000Z,17.875
2019-05-12T11:19:01.000Z,17.687
2019-05-12T11:20:01.000Z,17.562
2019-05-12T11:21:01.000Z,17.5
2019-05-12T11:22:01.000Z,17.312
2019-05-12T11:23:01.000Z,17.187
2019-05-12T11:24:01.000Z,17.187
2019-05-12T11:25:02.000Z,17.062
2019-05-12T11:26:01.000Z,16.875
2019-05-12T11:27:01.000Z,16.75
2019-05-12T11:28:01.000Z,16.687
2019-05-12T11:29:01.000Z,16.687
2019-05-12T11:30:01.000Z,16.937
2019-05-12T11:31:01.000Z,17.062
2019-05-12T11:31:01.000Z,17.062
2019-05-12T11:32:02.000Z,17.125
2019-05-12T11:33:02.000Z,17.125
2019-05-12T11:34:01.000Z,17.437
2019-05-12T11:35:01.000Z,17.312
2019-05-12T11:36:01.000Z,17.125
2019-05-12T11:37:02.000Z,17
2019-05-12T11:38:02.000Z,17.062
2019-05-12T11:39:02.000Z,17
2019-05-12T11:40:01.000Z,16.937
2019-05-12T11:41:02.000Z,17.062
2019-05-12T11:42:01.000Z,17.187
2019-05-12T11:42:01.000Z,17.187
2019-05-12T11:43:01.000Z,17.187
2019-05-12T11:45:02.000Z,17.25
2019-05-12T11:46:02.000Z,17.187
2019-05-12T11:47:02.000Z,17
2019-05-12T11:48:01.000Z,16.75
2019-05-12T11:49:01.000Z,16.687
2019-05-12T11:50:01.000Z,16.625
2019-05-12T11:51:01.000Z,16.687
2019-05-12T11:52:02.000Z,16.875
2019-05-12T11:53:01.000Z,17.187
2019-05-12T11:54:01.000Z,17.187
2019-05-12T11:54:02.000Z,17.187
2019-05-12T11:55:01.000Z,17.125
2019-05-12T11:56:02.000Z,17.187
2019-05-12T11:57:01.000Z,17.125
2019-05-12T11:58:02.000Z,17.125
2019-05-12T11:59:02.000Z,17.25
2019-05-12T12:00:02.000Z,17.375
2019-05-12T12:01:01.000Z,17.25
2019-05-12T12:02:01.000Z,17.25
2019-05-12T12:03:02.000Z,17.062
2019-05-12T12:04:01.000Z,16.937
2019-05-12T12:05:01.000Z,16.75